sensor_id;sensor_type;location;lat;lon;timestamp;temperature;humidity
44537;DHT22;30245;51.966;6.292;2022-11-20T00:00:48;5.60;45.80
44537;DHT22;30245;51.966;6.292;2022-11-20T00:03:13;5.60;45.90
44537;DHT22;30245;51.966;6.292;2022-11-20T00:05:39;5.60;45.80
44537;DHT22;30245;51.966;6.292;2022-11-20T00:08:04;5.60;45.80
44537;DHT22;30245;51.966;6.292;2022-11-20T00:10:30;5.60;45.90
44537;DHT22;30245;51.966;6.292;2022-11-20T00:12:57;5.60;45.90
44537;DHT22;30245;51.966;6.292;2022-11-20T00:15:23;5.60;45.90
44537;DHT22;30245;51.966;6.292;2022-11-20T00:17:48;5.60;46.00
44537;DHT22;30245;51.966;6.292;2022-11-20T00:20:14;5.60;46.10
44537;DHT22;30245;51.966;6.292;2022-11-20T00:22:40;5.60;46.00
44537;DHT22;30245;51.966;6.292;2022-11-20T00:25:05;5.60;46.00
44537;DHT22;30245;51.966;6.292;2022-11-20T00:27:31;5.60;46.10
44537;DHT22;30245;51.966;6.292;2022-11-20T00:29:57;5.60;46.10
44537;DHT22;30245;51.966;6.292;2022-11-20T00:32:22;5.60;46.00
44537;DHT22;30245;51.966;6.292;2022-11-20T00:34:48;5.60;46.00
44537;DHT22;30245;51.966;6.292;2022-11-20T00:37:13;5.60;46.10
44537;DHT22;30245;51.966;6.292;2022-11-20T00:39:39;5.60;46.20
44537;DHT22;30245;51.966;6.292;2022-11-20T00:42:04;5.60;46.10
44537;DHT22;30245;51.966;6.292;2022-11-20T00:44:30;5.60;46.10
44537;DHT22;30245;51.966;6.292;2022-11-20T00:46:55;5.50;46.10
44537;DHT22;30245;51.966;6.292;2022-11-20T00:49:21;5.60;46.20
44537;DHT22;30245;51.966;6.292;2022-11-20T00:51:52;5.50;46.10
44537;DHT22;30245;51.966;6.292;2022-11-20T00:54:18;5.50;46.20
44537;DHT22;30245;51.966;6.292;2022-11-20T00:56:44;5.50;46.30
44537;DHT22;30245;51.966;6.292;2022-11-20T00:59:09;5.40;46.40
44537;DHT22;30245;51.966;6.292;2022-11-20T01:01:36;5.50;46.40
44537;DHT22;30245;51.966;6.292;2022-11-20T01:04:02;5.50;47.00
44537;DHT22;30245;51.966;6.292;2022-11-20T01:06:36;5.50;46.40
44537;DHT22;30245;51.966;6.292;2022-11-20T01:09:13;5.50;46.50
44537;DHT22;30245;51.966;6.292;2022-11-20T01:11:42;5.50;46.50
44537;DHT22;30245;51.966;6.292;2022-11-20T01:14:15;5.40;46.50
44537;DHT22;30245;51.966;6.292;2022-11-20T01:16:43;5.40;46.60
44537;DHT22;30245;51.966;6.292;2022-11-20T01:19:13;5.40;46.60
44537;DHT22;30245;51.966;6.292;2022-11-20T01:21:41;5.40;46.70
44537;DHT22;30245;51.966;6.292;2022-11-20T01:24:10;5.40;46.70
44537;DHT22;30245;51.966;6.292;2022-11-20T01:26:37;5.40;46.70
44537;DHT22;30245;51.966;6.292;2022-11-20T01:29:03;5.40;46.50
44537;DHT22;30245;51.966;6.292;2022-11-20T01:31:36;5.30;46.40
44537;DHT22;30245;51.966;6.292;2022-11-20T01:34:09;5.30;46.40
44537;DHT22;30245;51.966;6.292;2022-11-20T01:36:36;5.20;46.50
44537;DHT22;30245;51.966;6.292;2022-11-20T01:39:05;5.10;46.50
44537;DHT22;30245;51.966;6.292;2022-11-20T01:41:32;5.10;46.70
44537;DHT22;30245;51.966;6.292;2022-11-20T01:44:20;5.00;46.70
44537;DHT22;30245;51.966;6.292;2022-11-20T01:47:02;5.00;46.70
44537;DHT22;30245;51.966;6.292;2022-11-20T01:49:40;5.00;46.80
44537;DHT22;30245;51.966;6.292;2022-11-20T01:52:32;5.00;46.80
44537;DHT22;30245;51.966;6.292;2022-11-20T01:55:29;5.00;46.80
44537;DHT22;30245;51.966;6.292;2022-11-20T01:57:53;5.00;46.80
44537;DHT22;30245;51.966;6.292;2022-11-20T02:00:20;5.00;46.80
44537;DHT22;30245;51.966;6.292;2022-11-20T02:02:58;5.00;46.70
44537;DHT22;30245;51.966;6.292;2022-11-20T02:05:31;4.90;46.70
44537;DHT22;30245;51.966;6.292;2022-11-20T02:08:00;4.80;46.70
44537;DHT22;30245;51.966;6.292;2022-11-20T02:10:28;4.70;46.80
44537;DHT22;30245;51.966;6.292;2022-11-20T02:12:54;4.70;46.90
44537;DHT22;30245;51.966;6.292;2022-11-20T02:15:39;4.60;47.00
44537;DHT22;30245;51.966;6.292;2022-11-20T02:18:05;4.60;47.00
44537;DHT22;30245;51.966;6.292;2022-11-20T02:20:31;4.60;47.10
44537;DHT22;30245;51.966;6.292;2022-11-20T02:23:01;4.50;47.10
44537;DHT22;30245;51.966;6.292;2022-11-20T02:25:30;4.50;47.20
44537;DHT22;30245;51.966;6.292;2022-11-20T02:27:56;4.60;47.20
44537;DHT22;30245;51.966;6.292;2022-11-20T02:30:22;4.60;47.20
44537;DHT22;30245;51.966;6.292;2022-11-20T02:32:47;4.60;47.30
44537;DHT22;30245;51.966;6.292;2022-11-20T02:37:47;4.60;47.20
44537;DHT22;30245;51.966;6.292;2022-11-20T02:40:13;4.60;47.20
44537;DHT22;30245;51.966;6.292;2022-11-20T02:42:39;4.70;47.20
44537;DHT22;30245;51.966;6.292;2022-11-20T02:45:06;4.70;47.20
44537;DHT22;30245;51.966;6.292;2022-11-20T02:47:31;4.70;47.10
44537;DHT22;30245;51.966;6.292;2022-11-20T02:49:57;4.80;47.10
44537;DHT22;30245;51.966;6.292;2022-11-20T02:52:22;4.80;47.10
44537;DHT22;30245;51.966;6.292;2022-11-20T02:54:48;4.80;47.10
44537;DHT22;30245;51.966;6.292;2022-11-20T02:57:14;4.80;47.10
44537;DHT22;30245;51.966;6.292;2022-11-20T02:59:39;4.80;47.20
44537;DHT22;30245;51.966;6.292;2022-11-20T03:02:05;4.80;47.30
44537;DHT22;30245;51.966;6.292;2022-11-20T03:04:30;4.80;47.30
44537;DHT22;30245;51.966;6.292;2022-11-20T03:06:56;4.80;47.30
44537;DHT22;30245;51.966;6.292;2022-11-20T03:09:21;4.90;47.30
44537;DHT22;30245;51.966;6.292;2022-11-20T03:11:47;4.90;47.30
44537;DHT22;30245;51.966;6.292;2022-11-20T03:14:13;4.90;47.30
44537;DHT22;30245;51.966;6.292;2022-11-20T03:16:39;4.90;47.30
44537;DHT22;30245;51.966;6.292;2022-11-20T03:19:05;4.90;47.30
44537;DHT22;30245;51.966;6.292;2022-11-20T03:21:32;4.90;47.30
44537;DHT22;30245;51.966;6.292;2022-11-20T03:23:58;4.90;47.30
44537;DHT22;30245;51.966;6.292;2022-11-20T03:26:25;4.90;47.30
44537;DHT22;30245;51.966;6.292;2022-11-20T03:28:58;4.90;47.30
44537;DHT22;30245;51.966;6.292;2022-11-20T03:31:32;4.90;47.30
44537;DHT22;30245;51.966;6.292;2022-11-20T03:33:59;4.80;47.40
44537;DHT22;30245;51.966;6.292;2022-11-20T03:36:26;4.90;47.50
44537;DHT22;30245;51.966;6.292;2022-11-20T03:38:56;4.80;48.10
44537;DHT22;30245;51.966;6.292;2022-11-20T03:41:27;4.80;47.60
44537;DHT22;30245;51.966;6.292;2022-11-20T03:43:58;4.80;47.60
44537;DHT22;30245;51.966;6.292;2022-11-20T03:46:24;4.80;47.70
44537;DHT22;30245;51.966;6.292;2022-11-20T03:48:50;4.80;47.60
44537;DHT22;30245;51.966;6.292;2022-11-20T03:51:21;4.70;48.20
44537;DHT22;30245;51.966;6.292;2022-11-20T03:53:49;4.70;47.60
44537;DHT22;30245;51.966;6.292;2022-11-20T03:56:17;4.60;47.60
44537;DHT22;30245;51.966;6.292;2022-11-20T03:58:43;4.60;47.70
44537;DHT22;30245;51.966;6.292;2022-11-20T04:01:20;4.50;47.80
44537;DHT22;30245;51.966;6.292;2022-11-20T04:03:47;4.50;47.90
44537;DHT22;30245;51.966;6.292;2022-11-20T04:06:18;4.50;47.90
44537;DHT22;30245;51.966;6.292;2022-11-20T04:08:44;4.50;48.00
44537;DHT22;30245;51.966;6.292;2022-11-20T04:11:18;4.50;47.90
44537;DHT22;30245;51.966;6.292;2022-11-20T04:13:47;4.50;47.90
44537;DHT22;30245;51.966;6.292;2022-11-20T04:16:15;4.50;47.90
44537;DHT22;30245;51.966;6.292;2022-11-20T04:18:40;4.50;47.90
44537;DHT22;30245;51.966;6.292;2022-11-20T04:21:06;4.50;47.90
44537;DHT22;30245;51.966;6.292;2022-11-20T04:23:32;4.50;47.90
44537;DHT22;30245;51.966;6.292;2022-11-20T04:26:11;4.50;47.90
44537;DHT22;30245;51.966;6.292;2022-11-20T04:28:38;4.50;47.90
44537;DHT22;30245;51.966;6.292;2022-11-20T04:31:09;4.50;47.90
44537;DHT22;30245;51.966;6.292;2022-11-20T04:33:36;4.50;48.00
44537;DHT22;30245;51.966;6.292;2022-11-20T04:36:14;4.50;48.00
44537;DHT22;30245;51.966;6.292;2022-11-20T04:38:40;4.50;48.00
44537;DHT22;30245;51.966;6.292;2022-11-20T04:41:08;4.40;48.00
44537;DHT22;30245;51.966;6.292;2022-11-20T04:43:33;4.40;48.10
44537;DHT22;30245;51.966;6.292;2022-11-20T04:46:00;4.40;48.10
44537;DHT22;30245;51.966;6.292;2022-11-20T04:48:26;4.40;48.00
44537;DHT22;30245;51.966;6.292;2022-11-20T04:50:53;4.40;48.00
44537;DHT22;30245;51.966;6.292;2022-11-20T04:53:19;4.30;48.00
44537;DHT22;30245;51.966;6.292;2022-11-20T04:55:45;4.30;48.10
44537;DHT22;30245;51.966;6.292;2022-11-20T04:58:11;4.20;48.00
44537;DHT22;30245;51.966;6.292;2022-11-20T05:00:37;4.20;48.10
44537;DHT22;30245;51.966;6.292;2022-11-20T05:03:03;4.20;48.10
44537;DHT22;30245;51.966;6.292;2022-11-20T05:05:28;4.20;48.10
44537;DHT22;30245;51.966;6.292;2022-11-20T05:07:56;4.20;48.10
44537;DHT22;30245;51.966;6.292;2022-11-20T05:10:23;4.20;48.70
44537;DHT22;30245;51.966;6.292;2022-11-20T05:12:49;4.10;48.00
44537;DHT22;30245;51.966;6.292;2022-11-20T05:15:14;4.00;48.10
44537;DHT22;30245;51.966;6.292;2022-11-20T05:17:40;4.10;48.20
44537;DHT22;30245;51.966;6.292;2022-11-20T05:20:06;4.10;48.20
44537;DHT22;30245;51.966;6.292;2022-11-20T05:22:32;4.10;48.10
44537;DHT22;30245;51.966;6.292;2022-11-20T05:24:57;4.10;48.00
44537;DHT22;30245;51.966;6.292;2022-11-20T05:27:23;4.00;48.10
44537;DHT22;30245;51.966;6.292;2022-11-20T05:29:48;4.00;48.10
44537;DHT22;30245;51.966;6.292;2022-11-20T05:32:14;3.90;48.00
44537;DHT22;30245;51.966;6.292;2022-11-20T05:34:39;3.90;48.20
44537;DHT22;30245;51.966;6.292;2022-11-20T05:37:05;3.90;48.20
44537;DHT22;30245;51.966;6.292;2022-11-20T05:39:31;3.90;48.30
44537;DHT22;30245;51.966;6.292;2022-11-20T05:41:56;3.90;48.30
44537;DHT22;30245;51.966;6.292;2022-11-20T05:44:40;3.90;48.30
44537;DHT22;30245;51.966;6.292;2022-11-20T05:47:06;3.90;48.30
44537;DHT22;30245;51.966;6.292;2022-11-20T05:49:32;3.90;48.30
44537;DHT22;30245;51.966;6.292;2022-11-20T05:51:57;3.90;48.20
44537;DHT22;30245;51.966;6.292;2022-11-20T05:54:23;3.90;48.20
44537;DHT22;30245;51.966;6.292;2022-11-20T05:56:49;3.90;48.20
44537;DHT22;30245;51.966;6.292;2022-11-20T05:59:15;3.90;48.20
44537;DHT22;30245;51.966;6.292;2022-11-20T06:01:40;3.80;48.10
44537;DHT22;30245;51.966;6.292;2022-11-20T06:04:06;3.80;48.20
44537;DHT22;30245;51.966;6.292;2022-11-20T06:06:31;3.70;48.20
44537;DHT22;30245;51.966;6.292;2022-11-20T06:08:57;3.70;48.30
44537;DHT22;30245;51.966;6.292;2022-11-20T06:11:24;3.70;48.20
44537;DHT22;30245;51.966;6.292;2022-11-20T06:13:50;3.70;48.20
44537;DHT22;30245;51.966;6.292;2022-11-20T06:16:17;3.70;48.30
44537;DHT22;30245;51.966;6.292;2022-11-20T06:18:44;3.70;48.30
44537;DHT22;30245;51.966;6.292;2022-11-20T06:21:15;3.60;48.40
44537;DHT22;30245;51.966;6.292;2022-11-20T06:23:41;3.60;48.40
44537;DHT22;30245;51.966;6.292;2022-11-20T06:26:15;3.70;48.40
44537;DHT22;30245;51.966;6.292;2022-11-20T06:28:41;3.60;48.40
44537;DHT22;30245;51.966;6.292;2022-11-20T06:31:07;3.60;48.40
44537;DHT22;30245;51.966;6.292;2022-11-20T06:33:35;3.60;48.40
44537;DHT22;30245;51.966;6.292;2022-11-20T06:36:01;3.60;48.40
44537;DHT22;30245;51.966;6.292;2022-11-20T06:38:27;3.70;48.40
44537;DHT22;30245;51.966;6.292;2022-11-20T06:40:54;3.70;48.40
44537;DHT22;30245;51.966;6.292;2022-11-20T06:43:25;3.70;48.40
44537;DHT22;30245;51.966;6.292;2022-11-20T06:45:52;3.70;48.30
44537;DHT22;30245;51.966;6.292;2022-11-20T06:48:18;3.60;48.20
44537;DHT22;30245;51.966;6.292;2022-11-20T06:50:44;3.70;48.30
44537;DHT22;30245;51.966;6.292;2022-11-20T06:53:09;3.70;48.30
44537;DHT22;30245;51.966;6.292;2022-11-20T06:55:35;3.70;48.20
44537;DHT22;30245;51.966;6.292;2022-11-20T06:58:00;3.80;48.20
44537;DHT22;30245;51.966;6.292;2022-11-20T07:00:26;3.80;48.20
44537;DHT22;30245;51.966;6.292;2022-11-20T07:02:52;3.80;48.20
44537;DHT22;30245;51.966;6.292;2022-11-20T07:05:17;3.80;48.20
44537;DHT22;30245;51.966;6.292;2022-11-20T07:07:43;3.80;48.20
44537;DHT22;30245;51.966;6.292;2022-11-20T07:10:09;3.80;48.20
44537;DHT22;30245;51.966;6.292;2022-11-20T07:12:36;3.90;48.30
44537;DHT22;30245;51.966;6.292;2022-11-20T07:15:01;3.90;48.20
44537;DHT22;30245;51.966;6.292;2022-11-20T07:17:27;3.90;48.20
44537;DHT22;30245;51.966;6.292;2022-11-20T07:19:53;3.80;48.20
44537;DHT22;30245;51.966;6.292;2022-11-20T07:22:18;3.80;48.30
44537;DHT22;30245;51.966;6.292;2022-11-20T07:24:47;3.80;48.30
44537;DHT22;30245;51.966;6.292;2022-11-20T07:27:12;3.80;48.30
44537;DHT22;30245;51.966;6.292;2022-11-20T07:29:38;3.80;48.30
44537;DHT22;30245;51.966;6.292;2022-11-20T07:32:04;3.70;48.40
44537;DHT22;30245;51.966;6.292;2022-11-20T07:34:29;3.70;48.40
44537;DHT22;30245;51.966;6.292;2022-11-20T07:36:55;3.70;48.40
44537;DHT22;30245;51.966;6.292;2022-11-20T07:39:20;3.70;48.50
44537;DHT22;30245;51.966;6.292;2022-11-20T07:41:46;3.60;48.50
44537;DHT22;30245;51.966;6.292;2022-11-20T07:44:11;3.70;48.60
44537;DHT22;30245;51.966;6.292;2022-11-20T07:46:37;3.70;48.60
44537;DHT22;30245;51.966;6.292;2022-11-20T07:49:03;3.70;48.70
44537;DHT22;30245;51.966;6.292;2022-11-20T07:51:28;3.90;48.90
44537;DHT22;30245;51.966;6.292;2022-11-20T07:53:54;4.20;48.90
44537;DHT22;30245;51.966;6.292;2022-11-20T07:56:20;4.60;48.70
44537;DHT22;30245;51.966;6.292;2022-11-20T07:58:45;5.00;48.50
44537;DHT22;30245;51.966;6.292;2022-11-20T08:01:11;5.40;48.20
44537;DHT22;30245;51.966;6.292;2022-11-20T08:03:37;5.80;47.80
44537;DHT22;30245;51.966;6.292;2022-11-20T08:06:05;6.10;47.30
44537;DHT22;30245;51.966;6.292;2022-11-20T08:08:31;6.50;46.80
44537;DHT22;30245;51.966;6.292;2022-11-20T08:10:57;6.90;46.40
44537;DHT22;30245;51.966;6.292;2022-11-20T08:13:45;7.20;46.00
44537;DHT22;30245;51.966;6.292;2022-11-20T08:16:30;7.50;45.50
44537;DHT22;30245;51.966;6.292;2022-11-20T08:18:55;7.60;45.20
44537;DHT22;30245;51.966;6.292;2022-11-20T08:21:21;7.70;45.10
44537;DHT22;30245;51.966;6.292;2022-11-20T08:23:47;7.90;45.00
44537;DHT22;30245;51.966;6.292;2022-11-20T08:26:13;8.10;44.90
44537;DHT22;30245;51.966;6.292;2022-11-20T08:28:38;8.40;44.70
44537;DHT22;30245;51.966;6.292;2022-11-20T08:31:04;8.70;44.70
44537;DHT22;30245;51.966;6.292;2022-11-20T08:33:30;9.10;44.50
44537;DHT22;30245;51.966;6.292;2022-11-20T08:36:02;9.40;44.00
44537;DHT22;30245;51.966;6.292;2022-11-20T08:38:29;9.80;43.70
44537;DHT22;30245;51.966;6.292;2022-11-20T08:41:02;10.10;43.30
44537;DHT22;30245;51.966;6.292;2022-11-20T08:43:46;10.40;43.00
44537;DHT22;30245;51.966;6.292;2022-11-20T08:46:12;10.60;42.60
44537;DHT22;30245;51.966;6.292;2022-11-20T08:48:38;10.80;42.40
44537;DHT22;30245;51.966;6.292;2022-11-20T08:51:03;11.00;42.30
44537;DHT22;30245;51.966;6.292;2022-11-20T08:53:29;11.10;42.40
44537;DHT22;30245;51.966;6.292;2022-11-20T08:55:56;11.20;42.20
44537;DHT22;30245;51.966;6.292;2022-11-20T08:58:25;11.40;42.00
44537;DHT22;30245;51.966;6.292;2022-11-20T09:00:51;11.50;41.90
44537;DHT22;30245;51.966;6.292;2022-11-20T09:03:17;11.60;41.90
44537;DHT22;30245;51.966;6.292;2022-11-20T09:05:42;11.40;41.70
44537;DHT22;30245;51.966;6.292;2022-11-20T09:08:08;11.30;42.00
44537;DHT22;30245;51.966;6.292;2022-11-20T09:10:33;11.10;42.20
44537;DHT22;30245;51.966;6.292;2022-11-20T09:12:59;10.90;42.30
44537;DHT22;30245;51.966;6.292;2022-11-20T09:15:25;10.70;42.60
44537;DHT22;30245;51.966;6.292;2022-11-20T09:17:55;10.60;43.00
44537;DHT22;30245;51.966;6.292;2022-11-20T09:20:21;10.40;43.10
44537;DHT22;30245;51.966;6.292;2022-11-20T09:22:47;10.30;43.40
44537;DHT22;30245;51.966;6.292;2022-11-20T09:25:13;10.40;43.40
44537;DHT22;30245;51.966;6.292;2022-11-20T09:27:38;10.60;43.20
44537;DHT22;30245;51.966;6.292;2022-11-20T09:30:04;10.90;42.90
44537;DHT22;30245;51.966;6.292;2022-11-20T09:32:30;11.20;42.60
44537;DHT22;30245;51.966;6.292;2022-11-20T09:34:56;11.40;42.30
44537;DHT22;30245;51.966;6.292;2022-11-20T09:37:21;11.70;41.80
44537;DHT22;30245;51.966;6.292;2022-11-20T09:39:47;12.10;41.50
44537;DHT22;30245;51.966;6.292;2022-11-20T09:42:55;12.20;41.40
44537;DHT22;30245;51.966;6.292;2022-11-20T09:45:39;12.20;41.30
44537;DHT22;30245;51.966;6.292;2022-11-20T09:54:22;11.60;41.90
44537;DHT22;30245;51.966;6.292;2022-11-20T09:56:56;11.20;42.60
44537;DHT22;30245;51.966;6.292;2022-11-20T09:59:44;11.10;42.90
44537;DHT22;30245;51.966;6.292;2022-11-20T10:10:16;10.50;43.20
44537;DHT22;30245;51.966;6.292;2022-11-20T10:18:57;10.00;43.90
44537;DHT22;30245;51.966;6.292;2022-11-20T10:27:39;9.70;44.20
44537;DHT22;30245;51.966;6.292;2022-11-20T10:30:12;9.70;44.30
44537;DHT22;30245;51.966;6.292;2022-11-20T10:32:43;9.60;44.50
44537;DHT22;30245;51.966;6.292;2022-11-20T10:37:44;9.40;44.80
44537;DHT22;30245;51.966;6.292;2022-11-20T10:40:43;9.40;44.90
44537;DHT22;30245;51.966;6.292;2022-11-20T10:43:21;9.50;44.90
44537;DHT22;30245;51.966;6.292;2022-11-20T10:46:06;9.50;45.00
44537;DHT22;30245;51.966;6.292;2022-11-20T10:48:36;9.60;45.30
44537;DHT22;30245;51.966;6.292;2022-11-20T10:56:31;9.70;45.20
44537;DHT22;30245;51.966;6.292;2022-11-20T11:01:52;9.60;45.50
44537;DHT22;30245;51.966;6.292;2022-11-20T11:04:37;9.70;45.60
44537;DHT22;30245;51.966;6.292;2022-11-20T11:07:15;9.80;45.80
44537;DHT22;30245;51.966;6.292;2022-11-20T11:09:47;9.90;45.70
44537;DHT22;30245;51.966;6.292;2022-11-20T11:12:13;10.10;45.60
44537;DHT22;30245;51.966;6.292;2022-11-20T11:14:51;10.30;45.40
44537;DHT22;30245;51.966;6.292;2022-11-20T11:17:28;10.60;45.40
44537;DHT22;30245;51.966;6.292;2022-11-20T11:20:05;10.80;45.10
44537;DHT22;30245;51.966;6.292;2022-11-20T11:22:34;11.00;45.00
44537;DHT22;30245;51.966;6.292;2022-11-20T11:25:00;11.00;45.00
44537;DHT22;30245;51.966;6.292;2022-11-20T11:27:26;11.00;45.20
44537;DHT22;30245;51.966;6.292;2022-11-20T11:30:10;11.10;45.40
44537;DHT22;30245;51.966;6.292;2022-11-20T11:32:36;11.10;45.30
44537;DHT22;30245;51.966;6.292;2022-11-20T11:35:05;11.40;45.70
44537;DHT22;30245;51.966;6.292;2022-11-20T11:37:37;11.50;45.20
44537;DHT22;30245;51.966;6.292;2022-11-20T11:40:05;11.50;45.10
44537;DHT22;30245;51.966;6.292;2022-11-20T11:42:32;11.30;45.20
44537;DHT22;30245;51.966;6.292;2022-11-20T11:44:59;11.10;45.50
44537;DHT22;30245;51.966;6.292;2022-11-20T11:50:15;10.80;46.00
44537;DHT22;30245;51.966;6.292;2022-11-20T12:00:51;10.50;46.40
44537;DHT22;30245;51.966;6.292;2022-11-20T12:03:27;10.40;46.60
44537;DHT22;30245;51.966;6.292;2022-11-20T12:06:11;10.30;46.90
44537;DHT22;30245;51.966;6.292;2022-11-20T12:09:26;10.30;47.70
44537;DHT22;30245;51.966;6.292;2022-11-20T12:11:56;10.20;47.10
44537;DHT22;30245;51.966;6.292;2022-11-20T12:14:38;10.30;47.20
44537;DHT22;30245;51.966;6.292;2022-11-20T12:17:05;10.20;47.20
44537;DHT22;30245;51.966;6.292;2022-11-20T12:19:33;10.20;47.10
44537;DHT22;30245;51.966;6.292;2022-11-20T12:24:54;10.20;47.30
44537;DHT22;30245;51.966;6.292;2022-11-20T12:30:12;10.10;47.30
44537;DHT22;30245;51.966;6.292;2022-11-20T12:49:55;9.60;48.50
44537;DHT22;30245;51.966;6.292;2022-11-20T12:52:38;9.50;48.70
44537;DHT22;30245;51.966;6.292;2022-11-20T12:55:23;9.50;48.80
44537;DHT22;30245;51.966;6.292;2022-11-20T12:57:58;9.50;48.90
44537;DHT22;30245;51.966;6.292;2022-11-20T13:00:25;9.60;49.00
44537;DHT22;30245;51.966;6.292;2022-11-20T13:08:19;9.60;49.20
44537;DHT22;30245;51.966;6.292;2022-11-20T13:10:51;9.60;49.30
44537;DHT22;30245;51.966;6.292;2022-11-20T13:13:45;9.50;49.30
44537;DHT22;30245;51.966;6.292;2022-11-20T13:16:17;9.50;49.60
44537;DHT22;30245;51.966;6.292;2022-11-20T13:18:45;9.40;49.60
44537;DHT22;30245;51.966;6.292;2022-11-20T13:21:19;9.40;49.80
44537;DHT22;30245;51.966;6.292;2022-11-20T13:23:45;9.40;50.20
44537;DHT22;30245;51.966;6.292;2022-11-20T13:26:20;9.30;50.30
44537;DHT22;30245;51.966;6.292;2022-11-20T13:28:59;9.30;50.60
44537;DHT22;30245;51.966;6.292;2022-11-20T13:31:28;9.30;50.50
44537;DHT22;30245;51.966;6.292;2022-11-20T13:33:56;9.40;50.60
44537;DHT22;30245;51.966;6.292;2022-11-20T13:36:27;9.40;50.60
44537;DHT22;30245;51.966;6.292;2022-11-20T13:38:55;9.40;50.70
44537;DHT22;30245;51.966;6.292;2022-11-20T13:41:35;9.50;50.80
44537;DHT22;30245;51.966;6.292;2022-11-20T13:46:46;9.40;50.90
44537;DHT22;30245;51.966;6.292;2022-11-20T13:49:25;9.40;51.10
44537;DHT22;30245;51.966;6.292;2022-11-20T14:00:19;9.50;51.50
44537;DHT22;30245;51.966;6.292;2022-11-20T14:05:35;9.40;51.50
44537;DHT22;30245;51.966;6.292;2022-11-20T14:08:03;9.40;51.70
44537;DHT22;30245;51.966;6.292;2022-11-20T14:10:30;9.30;51.90
44537;DHT22;30245;51.966;6.292;2022-11-20T14:12:55;9.30;52.00
44537;DHT22;30245;51.966;6.292;2022-11-20T14:15:31;9.20;52.30
44537;DHT22;30245;51.966;6.292;2022-11-20T14:17:58;9.10;52.70
44537;DHT22;30245;51.966;6.292;2022-11-20T14:20:28;9.10;52.90
44537;DHT22;30245;51.966;6.292;2022-11-20T14:22:56;9.00;53.10
44537;DHT22;30245;51.966;6.292;2022-11-20T14:25:26;9.00;53.10
44537;DHT22;30245;51.966;6.292;2022-11-20T14:28:00;9.00;53.30
44537;DHT22;30245;51.966;6.292;2022-11-20T14:30:44;9.00;53.50
44537;DHT22;30245;51.966;6.292;2022-11-20T14:33:12;9.00;53.70
44537;DHT22;30245;51.966;6.292;2022-11-20T14:35:47;8.90;53.90
44537;DHT22;30245;51.966;6.292;2022-11-20T14:38:17;8.90;54.20
44537;DHT22;30245;51.966;6.292;2022-11-20T14:40:43;8.80;54.20
44537;DHT22;30245;51.966;6.292;2022-11-20T14:43:26;8.90;54.30
44537;DHT22;30245;51.966;6.292;2022-11-20T14:45:59;8.90;54.30
44537;DHT22;30245;51.966;6.292;2022-11-20T14:48:48;8.90;54.30
44537;DHT22;30245;51.966;6.292;2022-11-20T14:51:37;8.90;54.40
44537;DHT22;30245;51.966;6.292;2022-11-20T14:54:15;9.00;54.40
44537;DHT22;30245;51.966;6.292;2022-11-20T14:56:42;9.00;54.40
44537;DHT22;30245;51.966;6.292;2022-11-20T14:59:08;9.00;54.30
44537;DHT22;30245;51.966;6.292;2022-11-20T15:01:34;9.10;54.40
44537;DHT22;30245;51.966;6.292;2022-11-20T15:06:32;9.00;54.50
44537;DHT22;30245;51.966;6.292;2022-11-20T15:08:57;9.00;54.60
44537;DHT22;30245;51.966;6.292;2022-11-20T15:11:34;9.00;54.80
44537;DHT22;30245;51.966;6.292;2022-11-20T15:14:06;9.00;54.90
44537;DHT22;30245;51.966;6.292;2022-11-20T15:16:32;9.00;54.90
44537;DHT22;30245;51.966;6.292;2022-11-20T15:18:58;9.00;54.90
44537;DHT22;30245;51.966;6.292;2022-11-20T15:21:25;9.00;55.00
44537;DHT22;30245;51.966;6.292;2022-11-20T15:23:50;9.00;55.10
44537;DHT22;30245;51.966;6.292;2022-11-20T15:26:26;9.00;55.20
44537;DHT22;30245;51.966;6.292;2022-11-20T15:28:53;8.90;55.30
44537;DHT22;30245;51.966;6.292;2022-11-20T15:31:21;8.90;55.30
44537;DHT22;30245;51.966;6.292;2022-11-20T15:33:48;8.90;55.50
44537;DHT22;30245;51.966;6.292;2022-11-20T15:36:13;8.90;55.50
44537;DHT22;30245;51.966;6.292;2022-11-20T15:38:39;8.90;55.50
44537;DHT22;30245;51.966;6.292;2022-11-20T15:41:05;9.00;55.60
44537;DHT22;30245;51.966;6.292;2022-11-20T15:43:30;8.90;55.50
44537;DHT22;30245;51.966;6.292;2022-11-20T15:46:02;9.00;55.70
44537;DHT22;30245;51.966;6.292;2022-11-20T15:48:42;8.90;55.70
44537;DHT22;30245;51.966;6.292;2022-11-20T15:51:23;9.00;55.80
44537;DHT22;30245;51.966;6.292;2022-11-20T15:53:49;8.90;55.90
44537;DHT22;30245;51.966;6.292;2022-11-20T15:56:16;8.80;56.00
44537;DHT22;30245;51.966;6.292;2022-11-20T15:58:42;8.80;56.10
44537;DHT22;30245;51.966;6.292;2022-11-20T16:01:15;8.80;56.10
44537;DHT22;30245;51.966;6.292;2022-11-20T16:03:41;8.80;56.10
44537;DHT22;30245;51.966;6.292;2022-11-20T16:06:07;8.80;56.20
44537;DHT22;30245;51.966;6.292;2022-11-20T16:08:33;8.80;56.20
44537;DHT22;30245;51.966;6.292;2022-11-20T16:10:59;8.80;56.30
44537;DHT22;30245;51.966;6.292;2022-11-20T16:13:25;8.90;57.00
44537;DHT22;30245;51.966;6.292;2022-11-20T16:16:20;8.90;56.40
44537;DHT22;30245;51.966;6.292;2022-11-20T16:18:46;8.90;56.50
44537;DHT22;30245;51.966;6.292;2022-11-20T16:21:12;9.00;56.50
44537;DHT22;30245;51.966;6.292;2022-11-20T16:23:39;8.90;56.50
44537;DHT22;30245;51.966;6.292;2022-11-20T16:26:13;8.90;56.50
44537;DHT22;30245;51.966;6.292;2022-11-20T16:28:39;8.90;56.70
44537;DHT22;30245;51.966;6.292;2022-11-20T16:33:38;9.00;56.70
44537;DHT22;30245;51.966;6.292;2022-11-20T16:36:11;9.00;56.70
44537;DHT22;30245;51.966;6.292;2022-11-20T16:38:37;9.10;56.60
44537;DHT22;30245;51.966;6.292;2022-11-20T16:41:03;9.10;56.60
44537;DHT22;30245;51.966;6.292;2022-11-20T16:43:29;9.10;57.10
44537;DHT22;30245;51.966;6.292;2022-11-20T16:45:54;9.10;57.30
44537;DHT22;30245;51.966;6.292;2022-11-20T16:48:20;9.00;56.60
44537;DHT22;30245;51.966;6.292;2022-11-20T16:50:54;9.10;56.70
44537;DHT22;30245;51.966;6.292;2022-11-20T16:53:21;9.00;56.80
44537;DHT22;30245;51.966;6.292;2022-11-20T16:55:47;9.00;56.70
44537;DHT22;30245;51.966;6.292;2022-11-20T16:58:13;9.10;56.80
44537;DHT22;30245;51.966;6.292;2022-11-20T17:00:39;9.10;56.80
44537;DHT22;30245;51.966;6.292;2022-11-20T17:03:06;9.10;56.80
44537;DHT22;30245;51.966;6.292;2022-11-20T17:05:32;9.00;56.90
44537;DHT22;30245;51.966;6.292;2022-11-20T17:07:58;9.00;57.00
44537;DHT22;30245;51.966;6.292;2022-11-20T17:10:24;8.90;57.20
44537;DHT22;30245;51.966;6.292;2022-11-20T17:12:50;8.90;57.40
44537;DHT22;30245;51.966;6.292;2022-11-20T17:15:15;8.90;57.50
44537;DHT22;30245;51.966;6.292;2022-11-20T17:17:41;8.80;57.50
44537;DHT22;30245;51.966;6.292;2022-11-20T17:20:07;8.80;57.70
44537;DHT22;30245;51.966;6.292;2022-11-20T17:22:33;8.80;57.90
44537;DHT22;30245;51.966;6.292;2022-11-20T17:24:58;8.70;58.00
44537;DHT22;30245;51.966;6.292;2022-11-20T17:27:24;8.70;58.20
44537;DHT22;30245;51.966;6.292;2022-11-20T17:29:51;8.70;58.30
44537;DHT22;30245;51.966;6.292;2022-11-20T17:32:19;8.70;58.50
44537;DHT22;30245;51.966;6.292;2022-11-20T17:34:45;8.70;58.60